Terminal Aerodrome Forecast
Issued by NWS Charleston, WV

Home | Current Version | Previous Version | Text Only | Print | Product List | Glossary On
Versions: 1 2 3 4 5 6 7 8 9 10 11 12 13 14 15 16 17 18 19 20 21 22 23 24
000
FTUS41 KRLX 191100
TAFBKW
TAF
KBKW 191120Z 1912/2012 00000KT P6SM BKN025
     FM191400 13005KT P6SM BKN012
     FM191800 13008KT P6SM BKN025
     FM192100 12009KT P6SM BKN015
     FM200000 13006KT P6SM SCT015
     FM200300 14010G15KT P6SM SCT015
     FM200800 16006KT P6SM SCT025=

USA.gov is the U.S. government's official web portal to all federal, state and local government web resources and services.